Time;durP1;ratioP1;P1;durP2;ratioP2;P2;SDS_P1;SDS_P2;PMS_P1;PMS_P2;Temp;Humidity;BMP_temperature;BMP_pressure;BME280_temperature;BME280_humidity;BME280_pressure;Samples;Min_cycle;Max_cycle;Signal;HPM_P1;HPM_P2
2022/07/29 00:00:00;;;;;;;;;;;14.10;99.90;;;;;;5136120;27;20285;-72
2022/07/29 00:02:26;;;;;;;;;;;14.10;99.90;;;;;;5117301;27;19908;-72
2022/07/29 00:04:52;;;;;;;;;;;14.10;99.90;;;;;;5136327;27;19910;-72
2022/07/29 00:07:17;;;;;;;;;;;14.10;99.90;;;;;;5135263;27;19904;-73
2022/07/29 00:09:43;;;;;;;;;;;14.10;99.90;;;;;;5135983;27;19909;-72
2022/07/29 00:12:09;;;;;;;;;;;14.10;99.90;;;;;;5136072;27;20348;-72
2022/07/29 00:14:34;;;;;;;;;;;14.10;99.90;;;;;;5135454;27;19903;-72
2022/07/29 00:17:00;;;;;;;;;;;14.10;99.90;;;;;;5135826;27;19910;-72
2022/07/29 00:19:25;;;;;;;;;;;14.10;99.90;;;;;;5135049;27;19917;-73
2022/07/29 00:21:51;;;;;;;;;;;14.10;99.90;;;;;;5135510;27;19908;-72
2022/07/29 00:24:16;;;;;;;;;;;14.20;99.90;;;;;;5135240;27;19953;-73
2022/07/29 00:26:42;;;;;;;;;;;14.20;99.90;;;;;;5135619;27;20342;-73
2022/07/29 00:29:08;;;;;;;;;;;14.20;99.90;;;;;;5135686;27;19927;-73
2022/07/29 00:31:33;;;;;;;;;;;14.20;99.90;;;;;;5116704;27;19963;-73
2022/07/29 00:33:59;;;;;;;;;;;14.20;99.90;;;;;;5135390;27;20025;-73
2022/07/29 00:36:24;;;;;;;;;;;14.30;99.90;;;;;;5134766;27;19916;-73
2022/07/29 00:38:50;;;;;;;;;;;14.30;99.90;;;;;;5135398;27;19928;-73
2022/07/29 00:41:16;;;;;;;;;;;14.30;99.90;;;;;;5134974;27;19977;-73
2022/07/29 00:43:42;;;;;;;;;;;14.20;99.90;;;;;;5135517;27;19913;-73
2022/07/29 00:46:08;;;;;;;;;;;14.20;99.90;;;;;;5135349;27;19918;-73
2022/07/29 00:48:33;;;;;;;;;;;14.20;99.90;;;;;;5134830;27;20213;-73
2022/07/29 00:50:59;;;;;;;;;;;14.10;99.90;;;;;;5135625;27;19953;-73
2022/07/29 00:53:26;;;;;;;;;;;14.10;99.90;;;;;;5134516;27;19950;-73
2022/07/29 00:55:53;;;;;;;;;;;14.10;99.90;;;;;;5135242;27;19948;-73
2022/07/29 00:58:19;;;;;;;;;;;14.20;99.90;;;;;;5134815;27;19903;-73
2022/07/29 01:00:44;;;;;;;;;;;14.20;99.90;;;;;;5134732;27;19908;-71
2022/07/29 01:03:10;;;;;;;;;;;14.20;99.90;;;;;;5134763;27;19960;-73
2022/07/29 01:05:35;;;;;;;;;;;14.20;99.90;;;;;;5134673;27;19907;-73
2022/07/29 01:08:01;;;;;;;;;;;14.40;99.90;;;;;;5134890;27;19914;-73
2022/07/29 01:10:27;;;;;;;;;;;14.40;99.90;;;;;;5134459;27;19954;-73
2022/07/29 01:12:54;;;;;;;;;;;14.40;99.90;;;;;;5134841;27;19911;-73
2022/07/29 01:15:20;;;;;;;;;;;14.40;99.90;;;;;;5134242;27;19911;-73
2022/07/29 01:17:58;;;;;;;;;;;14.50;99.90;;;;;;5134742;27;19904;-73
2022/07/29 01:20:36;;;;;;;;;;;14.50;99.90;;;;;;5134327;27;19960;-73
2022/07/29 01:23:18;;;;;;;;;;;14.60;99.90;;;;;;5134786;27;20002;-73
2022/07/29 01:25:44;;;;;;;;;;;14.70;99.90;;;;;;5134900;27;19904;-73
2022/07/29 01:28:09;;;;;;;;;;;14.80;99.90;;;;;;5134648;27;19904;-73
2022/07/29 01:30:36;;;;;;;;;;;14.70;99.90;;;;;;5134085;27;19904;-73
2022/07/29 01:33:05;;;;;;;;;;;14.70;99.90;;;;;;5134001;27;19930;-73
2022/07/29 01:35:34;;;;;;;;;;;14.80;99.90;;;;;;5133877;27;20002;-73
2022/07/29 01:37:59;;;;;;;;;;;14.70;99.90;;;;;;5134573;27;19943;-73
2022/07/29 01:40:28;;;;;;;;;;;14.80;99.90;;;;;;5133891;27;19984;-73
2022/07/29 01:42:55;;;;;;;;;;;14.70;99.90;;;;;;5134341;27;19908;-73
2022/07/29 01:45:30;;;;;;;;;;;14.60;99.90;;;;;;5134003;27;19907;-73
2022/07/29 01:48:02;;;;;;;;;;;14.60;99.90;;;;;;5134335;28;20259;-73
2022/07/29 01:50:31;;;;;;;;;;;14.70;99.90;;;;;;5133657;28;19907;-73
2022/07/29 01:52:58;;;;;;;;;;;14.70;99.90;;;;;;5134308;28;20366;-73
2022/07/29 01:55:29;;;;;;;;;;;14.80;99.90;;;;;;5133892;28;19910;-73
2022/07/29 01:57:56;;;;;;;;;;;14.80;99.90;;;;;;5134104;28;19942;-73
2022/07/29 02:00:22;;;;;;;;;;;14.80;99.90;;;;;;5133456;28;19913;-73
2022/07/29 02:02:48;;;;;;;;;;;14.80;99.90;;;;;;5134244;28;19907;-73
2022/07/29 02:05:15;;;;;;;;;;;14.70;99.90;;;;;;5134271;28;19910;-73
2022/07/29 02:07:41;;;;;;;;;;;14.70;99.90;;;;;;5133707;28;19926;-73
2022/07/29 02:10:08;;;;;;;;;;;14.70;99.90;;;;;;5134183;28;20011;-73
2022/07/29 02:12:35;;;;;;;;;;;14.80;99.90;;;;;;5133675;28;19936;-73
2022/07/29 02:15:02;;;;;;;;;;;14.80;99.90;;;;;;5133735;28;20255;-73
2022/07/29 02:17:32;;;;;;;;;;;14.90;99.90;;;;;;5133646;28;19943;-73
2022/07/29 02:19:59;;;;;;;;;;;15.00;99.90;;;;;;5134000;28;19911;-73
2022/07/29 02:22:26;;;;;;;;;;;15.00;99.90;;;;;;5133661;28;19915;-73
2022/07/29 02:24:52;;;;;;;;;;;15.00;99.90;;;;;;5133687;28;20291;-73
2022/07/29 02:27:18;;;;;;;;;;;15.00;99.90;;;;;;5133940;28;19904;-73
2022/07/29 02:29:45;;;;;;;;;;;15.00;99.90;;;;;;5133515;28;19903;-73
2022/07/29 02:32:12;;;;;;;;;;;15.00;99.90;;;;;;5133912;28;19935;-73
2022/07/29 02:34:38;;;;;;;;;;;15.00;99.90;;;;;;5133489;28;20348;-73
2022/07/29 02:37:04;;;;;;;;;;;15.00;99.90;;;;;;5133468;28;19915;-73
2022/07/29 02:39:29;;;;;;;;;;;15.00;99.90;;;;;;5133393;28;19904;-73
2022/07/29 02:41:58;;;;;;;;;;;14.90;99.90;;;;;;5133702;28;19911;-73
2022/07/29 02:44:24;;;;;;;;;;;14.90;99.90;;;;;;5133138;27;19904;-73
2022/07/29 02:46:51;;;;;;;;;;;14.80;99.90;;;;;;5137377;27;20006;-72
2022/07/29 02:49:36;;;;;;;;;;;14.80;99.90;;;;;;5137687;27;19903;-73
2022/07/29 02:52:03;;;;;;;;;;;14.80;99.90;;;;;;5137650;27;19907;-73
2022/07/29 02:54:46;;;;;;;;;;;14.80;99.90;;;;;;5137023;27;19903;-73
2022/07/29 02:57:18;;;;;;;;;;;14.80;99.90;;;;;;5137495;27;19903;-73
2022/07/29 02:59:45;;;;;;;;;;;14.80;99.90;;;;;;5136933;27;19910;-73
2022/07/29 03:02:11;;;;;;;;;;;14.80;99.90;;;;;;5137435;27;19907;-73
2022/07/29 03:04:37;;;;;;;;;;;14.80;99.90;;;;;;5136612;27;19927;-73
2022/07/29 03:07:03;;;;;;;;;;;14.90;99.90;;;;;;5137465;27;19908;-72
2022/07/29 03:09:29;;;;;;;;;;;14.90;99.90;;;;;;5136871;27;19904;-73
2022/07/29 03:11:58;;;;;;;;;;;15.00;99.90;;;;;;5118844;27;19911;-72
2022/07/29 03:14:24;;;;;;;;;;;15.10;99.90;;;;;;5136624;27;19904;-74
2022/07/29 03:16:50;;;;;;;;;;;15.10;99.90;;;;;;5137229;27;19998;-72
2022/07/29 03:19:16;;;;;;;;;;;15.10;99.90;;;;;;5137279;27;19969;-72
2022/07/29 03:21:42;;;;;;;;;;;15.10;99.90;;;;;;5136181;27;19911;-73
2022/07/29 03:24:07;;;;;;;;;;;15.10;99.90;;;;;;5136688;27;19951;-72
2022/07/29 03:26:33;;;;;;;;;;;15.20;99.90;;;;;;5136519;27;19904;-72
2022/07/29 03:28:59;;;;;;;;;;;15.20;99.90;;;;;;5136863;27;20348;-72
2022/07/29 03:31:25;;;;;;;;;;;15.20;99.90;;;;;;5136376;27;19948;-73
2022/07/29 03:33:51;;;;;;;;;;;15.20;99.90;;;;;;5136453;27;19904;-72
2022/07/29 03:36:16;;;;;;;;;;;15.30;99.90;;;;;;5136496;27;19915;-73
2022/07/29 03:38:42;;;;;;;;;;;15.30;99.90;;;;;;5136054;27;19907;-73
2022/07/29 03:41:10;;;;;;;;;;;15.40;99.90;;;;;;5136369;27;19950;-73
2022/07/29 03:43:37;;;;;;;;;;;15.40;99.90;;;;;;5136130;27;19914;-73
2022/07/29 03:46:04;;;;;;;;;;;15.40;99.90;;;;;;5136458;27;19973;-72
2022/07/29 03:48:30;;;;;;;;;;;15.40;99.90;;;;;;5136306;27;20052;-73
2022/07/29 03:50:56;;;;;;;;;;;15.50;99.90;;;;;;5136410;27;20293;-73
2022/07/29 03:53:22;;;;;;;;;;;15.50;99.90;;;;;;5136420;27;19908;-73
2022/07/29 03:55:50;;;;;;;;;;;15.50;99.90;;;;;;5135504;27;20217;-73
2022/07/29 03:58:16;;;;;;;;;;;15.40;99.90;;;;;;5136297;27;19904;-74
2022/07/29 04:00:42;;;;;;;;;;;15.40;99.90;;;;;;5135687;27;19907;-75
2022/07/29 04:03:08;;;;;;;;;;;15.30;99.90;;;;;;5136245;27;19908;-74
2022/07/29 04:05:33;;;;;;;;;;;15.30;99.90;;;;;;5135697;27;20344;-73
2022/07/29 04:07:59;;;;;;;;;;;15.20;99.90;;;;;;5136076;27;19925;-74
2022/07/29 04:10:24;;;;;;;;;;;15.20;99.90;;;;;;5136039;27;20305;-73
2022/07/29 04:12:50;;;;;;;;;;;15.10;99.90;;;;;;5135632;27;19903;-74
2022/07/29 04:15:16;;;;;;;;;;;15.10;99.90;;;;;;5135926;27;19957;-73
2022/07/29 04:17:41;;;;;;;;;;;15.10;99.90;;;;;;5135438;27;19904;-72
2022/07/29 04:20:07;;;;;;;;;;;15.20;99.90;;;;;;5135829;27;19907;-73
2022/07/29 04:22:33;;;;;;;;;;;15.20;99.90;;;;;;5135288;27;19911;-73
2022/07/29 04:24:59;;;;;;;;;;;15.20;99.90;;;;;;5135869;27;19903;-72
2022/07/29 04:27:24;;;;;;;;;;;15.20;99.90;;;;;;5135743;27;19904;-72
2022/07/29 04:29:50;;;;;;;;;;;15.10;99.90;;;;;;5135227;27;19908;-72
2022/07/29 04:32:16;;;;;;;;;;;15.10;99.90;;;;;;5135612;27;19956;-72
2022/07/29 04:34:41;;;;;;;;;;;15.10;99.90;;;;;;5135133;27;19908;-71
2022/07/29 04:37:07;;;;;;;;;;;15.10;99.90;;;;;;5135086;27;20002;-72
2022/07/29 04:39:32;;;;;;;;;;;15.10;99.90;;;;;;5134968;27;20006;-72
2022/07/29 04:41:58;;;;;;;;;;;15.10;99.90;;;;;;5135432;27;19918;-72
2022/07/29 04:44:23;;;;;;;;;;;15.10;99.90;;;;;;5135445;27;19910;-73
2022/07/29 04:46:49;;;;;;;;;;;15.10;99.90;;;;;;5134892;27;19950;-73
2022/07/29 04:49:14;;;;;;;;;;;15.00;99.90;;;;;;5135292;27;19990;-73
2022/07/29 04:51:40;;;;;;;;;;;15.00;99.90;;;;;;5134534;27;20332;-73
2022/07/29 04:54:06;;;;;;;;;;;15.00;99.90;;;;;;5135191;27;19948;-72
2022/07/29 04:56:31;;;;;;;;;;;15.00;99.90;;;;;;5134652;27;19904;-72
2022/07/29 04:58:57;;;;;;;;;;;15.00;99.90;;;;;;5135099;27;20351;-73
2022/07/29 05:01:22;;;;;;;;;;;15.00;99.90;;;;;;5134856;27;19919;-72
2022/07/29 05:03:48;;;;;;;;;;;14.90;99.90;;;;;;5134587;27;19931;-73
2022/07/29 05:06:14;;;;;;;;;;;15.00;99.90;;;;;;5135007;27;19909;-73
2022/07/29 05:08:39;;;;;;;;;;;15.00;99.90;;;;;;5133782;27;19904;-73
2022/07/29 05:11:05;;;;;;;;;;;15.10;99.90;;;;;;5134935;27;20363;-72
2022/07/29 05:13:30;;;;;;;;;;;15.10;99.90;;;;;;5134656;27;19907;-74
2022/07/29 05:15:58;;;;;;;;;;;15.00;99.90;;;;;;5135193;27;19946;-73
2022/07/29 05:18:24;;;;;;;;;;;15.10;99.90;;;;;;5134774;27;19986;-73
2022/07/29 05:20:50;;;;;;;;;;;15.10;99.90;;;;;;5134125;27;20352;-73
2022/07/29 05:23:15;;;;;;;;;;;15.10;99.90;;;;;;5134707;27;19914;-72
2022/07/29 05:25:41;;;;;;;;;;;15.10;99.90;;;;;;5133879;27;20400;-73
2022/07/29 05:28:06;;;;;;;;;;;15.10;99.90;;;;;;5134611;27;19904;-73
2022/07/29 05:30:32;;;;;;;;;;;15.20;99.90;;;;;;5134079;27;19914;-74
2022/07/29 05:32:58;;;;;;;;;;;15.20;99.90;;;;;;5134174;27;20001;-73
2022/07/29 05:35:23;;;;;;;;;;;15.30;99.90;;;;;;5134214;27;19910;-73
2022/07/29 05:37:49;;;;;;;;;;;15.20;99.90;;;;;;5134230;27;19903;-73
2022/07/29 05:40:14;;;;;;;;;;;15.20;99.90;;;;;;5134281;27;20365;-72
2022/07/29 05:42:40;;;;;;;;;;;15.20;99.90;;;;;;5133695;27;19918;-73
2022/07/29 05:45:06;;;;;;;;;;;15.30;99.90;;;;;;5134424;27;19910;-72
2022/07/29 05:47:31;;;;;;;;;;;15.30;99.90;;;;;;5116066;28;19904;-72
2022/07/29 05:49:57;;;;;;;;;;;15.40;99.90;;;;;;5134162;28;19903;-72
2022/07/29 05:52:22;;;;;;;;;;;15.40;99.90;;;;;;5134060;28;19953;-72
2022/07/29 05:54:48;;;;;;;;;;;15.50;99.90;;;;;;5133753;28;19908;-73
2022/07/29 05:57:23;;;;;;;;;;;15.50;99.90;;;;;;5134117;28;19910;-73
2022/07/29 05:59:49;;;;;;;;;;;15.50;99.90;;;;;;5133726;28;19954;-72
2022/07/29 06:02:15;;;;;;;;;;;15.60;99.90;;;;;;5134246;28;19958;-73
2022/07/29 06:04:40;;;;;;;;;;;15.70;99.90;;;;;;5133736;28;19903;-73
2022/07/29 06:07:06;;;;;;;;;;;15.70;99.90;;;;;;5134200;28;19904;-73
2022/07/29 06:09:32;;;;;;;;;;;15.80;99.90;;;;;;5134164;28;19903;-72
2022/07/29 06:11:58;;;;;;;;;;;15.80;99.90;;;;;;5133635;28;20055;-72
2022/07/29 06:14:23;;;;;;;;;;;15.90;99.90;;;;;;5134034;28;19998;-72
2022/07/29 06:16:49;;;;;;;;;;;15.90;99.90;;;;;;5133565;28;19903;-72
2022/07/29 06:19:15;;;;;;;;;;;16.00;99.90;;;;;;5134646;27;19994;-71
2022/07/29 06:21:42;;;;;;;;;;;16.00;99.90;;;;;;5137513;27;19922;-73
2022/07/29 06:24:07;;;;;;;;;;;16.00;99.90;;;;;;5138427;27;19914;-73
2022/07/29 06:26:33;;;;;;;;;;;16.10;99.90;;;;;;5137788;27;19907;-72
2022/07/29 06:28:58;;;;;;;;;;;16.10;99.90;;;;;;5137591;27;20224;-73
2022/07/29 06:31:24;;;;;;;;;;;16.20;99.90;;;;;;5138032;27;19903;-72
2022/07/29 06:33:50;;;;;;;;;;;16.20;99.90;;;;;;5137490;27;19903;-73
2022/07/29 06:36:15;;;;;;;;;;;16.30;99.90;;;;;;5137409;27;20232;-73
2022/07/29 06:38:41;;;;;;;;;;;16.40;99.90;;;;;;5137321;27;19903;-72
2022/07/29 06:41:11;;;;;;;;;;;16.50;99.90;;;;;;5137657;27;19975;-72
2022/07/29 06:43:38;;;;;;;;;;;16.50;99.90;;;;;;5137233;27;19960;-74
2022/07/29 06:46:05;;;;;;;;;;;16.60;99.90;;;;;;5137652;27;20347;-73
2022/07/29 06:48:31;;;;;;;;;;;16.60;99.90;;;;;;5137532;27;19907;-72
2022/07/29 06:50:56;;;;;;;;;;;16.70;99.90;;;;;;5137029;27;20263;-73
2022/07/29 06:53:22;;;;;;;;;;;16.80;99.90;;;;;;5137399;27;20313;-71
2022/07/29 06:55:48;;;;;;;;;;;16.80;99.90;;;;;;5118610;27;19950;-73
2022/07/29 06:58:15;;;;;;;;;;;16.80;99.90;;;;;;5137435;27;19903;-72
2022/07/29 07:00:41;;;;;;;;;;;16.90;99.90;;;;;;5136801;27;19919;-72
2022/07/29 07:03:07;;;;;;;;;;;16.90;99.90;;;;;;5137179;27;20418;-72
2022/07/29 07:05:32;;;;;;;;;;;16.90;99.90;;;;;;5137389;27;20064;-72
2022/07/29 07:07:58;;;;;;;;;;;17.00;99.90;;;;;;5136745;27;20355;-72
2022/07/29 07:10:24;;;;;;;;;;;17.00;99.90;;;;;;5137341;27;20293;-73
2022/07/29 07:12:49;;;;;;;;;;;17.00;99.90;;;;;;5136803;27;19903;-73
2022/07/29 07:15:15;;;;;;;;;;;17.10;99.90;;;;;;5137059;27;19904;-73
2022/07/29 07:17:40;;;;;;;;;;;17.10;99.90;;;;;;5136949;27;19935;-73
2022/07/29 07:20:06;;;;;;;;;;;17.10;99.90;;;;;;5136913;27;19907;-73
2022/07/29 07:22:32;;;;;;;;;;;17.20;99.90;;;;;;5136822;27;19994;-73
2022/07/29 07:24:57;;;;;;;;;;;17.30;99.90;;;;;;5136460;27;19994;-73
2022/07/29 07:27:23;;;;;;;;;;;17.40;99.90;;;;;;5136931;27;19922;-73
2022/07/29 07:29:48;;;;;;;;;;;17.50;99.90;;;;;;5136247;27;19955;-72
2022/07/29 07:32:16;;;;;;;;;;;17.50;99.90;;;;;;5135871;27;19904;-72
2022/07/29 07:34:42;;;;;;;;;;;17.60;99.90;;;;;;5117761;27;19907;-73
2022/07/29 07:37:08;;;;;;;;;;;17.70;99.90;;;;;;5136399;27;19915;-73
2022/07/29 07:39:33;;;;;;;;;;;17.70;99.90;;;;;;5136429;27;20301;-72
2022/07/29 07:41:59;;;;;;;;;;;17.80;99.90;;;;;;5136471;27;20139;-73
2022/07/29 07:44:24;;;;;;;;;;;17.90;99.90;;;;;;5136676;27;19942;-73
2022/07/29 07:46:50;;;;;;;;;;;17.80;99.90;;;;;;5135998;27;19903;-73
2022/07/29 07:49:16;;;;;;;;;;;17.80;99.90;;;;;;5136644;27;19994;-72
2022/07/29 07:51:41;;;;;;;;;;;17.90;99.90;;;;;;5135878;27;19904;-73
2022/07/29 07:54:07;;;;;;;;;;;18.00;99.90;;;;;;5136365;27;19904;-72
2022/07/29 07:56:32;;;;;;;;;;;18.00;99.90;;;;;;5136262;27;20340;-72
2022/07/29 07:58:58;;;;;;;;;;;18.10;99.90;;;;;;5135718;27;19903;-73
2022/07/29 08:01:23;;;;;;;;;;;18.10;99.90;;;;;;5136128;27;20269;-73
2022/07/29 08:03:49;;;;;;;;;;;18.10;99.90;;;;;;5135701;27;19908;-73
2022/07/29 08:06:15;;;;;;;;;;;18.10;99.90;;;;;;5135926;27;19939;-73
2022/07/29 08:08:41;;;;;;;;;;;18.10;99.90;;;;;;5135653;27;19904;-72
2022/07/29 08:11:06;;;;;;;;;;;18.10;99.90;;;;;;5135897;27;19952;-72
2022/07/29 08:13:32;;;;;;;;;;;18.10;99.90;;;;;;5135784;27;19908;-72
2022/07/29 08:16:01;;;;;;;;;;;18.20;99.90;;;;;;5135337;27;19903;-72
2022/07/29 08:18:27;;;;;;;;;;;18.20;99.90;;;;;;5135643;27;19994;-72
2022/07/29 08:20:53;;;;;;;;;;;18.20;99.90;;;;;;5135407;27;19911;-72
2022/07/29 08:23:19;;;;;;;;;;;18.10;99.90;;;;;;5136063;27;19952;-72
2022/07/29 08:25:45;;;;;;;;;;;18.20;99.90;;;;;;5135084;27;20011;-73
2022/07/29 08:28:10;;;;;;;;;;;18.20;99.90;;;;;;5135532;27;19903;-73
2022/07/29 08:30:36;;;;;;;;;;;18.30;99.90;;;;;;5135834;27;20055;-72
2022/07/29 08:33:01;;;;;;;;;;;18.40;99.90;;;;;;5134985;27;19920;-72
2022/07/29 08:35:27;;;;;;;;;;;18.40;99.90;;;;;;5135039;27;20351;-73
2022/07/29 08:37:53;;;;;;;;;;;18.50;99.90;;;;;;5135297;27;19919;-72
2022/07/29 08:40:20;;;;;;;;;;;18.60;99.90;;;;;;5135340;27;19918;-73
2022/07/29 08:42:45;;;;;;;;;;;18.60;99.90;;;;;;5133897;27;19907;-73
2022/07/29 08:45:11;;;;;;;;;;;18.50;99.90;;;;;;5135340;27;19910;-73
2022/07/29 08:47:39;;;;;;;;;;;18.60;99.90;;;;;;5135680;27;19947;-73
2022/07/29 08:50:05;;;;;;;;;;;18.70;99.90;;;;;;5134721;27;19908;-74
2022/07/29 08:52:32;;;;;;;;;;;18.90;99.90;;;;;;5134921;27;19911;-74
2022/07/29 08:54:58;;;;;;;;;;;19.20;99.90;;;;;;5116710;27;19907;-73
2022/07/29 08:57:24;;;;;;;;;;;19.40;99.90;;;;;;5135114;27;19947;-73
2022/07/29 08:59:50;;;;;;;;;;;19.50;99.90;;;;;;5134539;27;19969;-73
2022/07/29 09:02:19;;;;;;;;;;;19.60;99.90;;;;;;5134982;27;19908;-73
2022/07/29 09:04:45;;;;;;;;;;;19.70;99.90;;;;;;5134894;27;19903;-74
2022/07/29 09:07:14;;;;;;;;;;;19.70;99.90;;;;;;5134622;27;19904;-73
2022/07/29 09:09:39;;;;;;;;;;;19.70;99.90;;;;;;5134836;27;19904;-73
2022/07/29 09:12:07;;;;;;;;;;;19.90;99.90;;;;;;5134343;27;19907;-73
2022/07/29 09:14:32;;;;;;;;;;;19.90;99.90;;;;;;5134314;27;19907;-73
2022/07/29 09:16:58;;;;;;;;;;;19.90;99.90;;;;;;5134251;27;19903;-73
2022/07/29 09:19:25;;;;;;;;;;;20.00;99.90;;;;;;5134656;27;20340;-72
2022/07/29 09:21:57;;;;;;;;;;;20.20;99.90;;;;;;5134121;27;19908;-73
2022/07/29 09:24:23;;;;;;;;;;;20.20;99.90;;;;;;5134747;27;20404;-73
2022/07/29 09:26:49;;;;;;;;;;;20.40;99.90;;;;;;5133727;27;20259;-73
2022/07/29 09:29:18;;;;;;;;;;;20.70;99.90;;;;;;5134203;27;19904;-73
2022/07/29 09:31:45;;;;;;;;;;;20.80;99.90;;;;;;5134418;27;19904;-73
2022/07/29 09:34:11;;;;;;;;;;;20.90;99.90;;;;;;5134299;27;19910;-73
2022/07/29 09:36:45;;;;;;;;;;;20.90;99.90;;;;;;5134485;27;20063;-73
2022/07/29 09:39:11;;;;;;;;;;;20.70;99.90;;;;;;5133818;27;20237;-72
2022/07/29 09:41:47;;;;;;;;;;;20.70;99.90;;;;;;5134229;27;19915;-73
2022/07/29 09:44:14;;;;;;;;;;;20.60;99.90;;;;;;5134221;27;19911;-73
2022/07/29 09:46:41;;;;;;;;;;;20.50;99.90;;;;;;5134250;27;20060;-73
2022/07/29 09:49:08;;;;;;;;;;;20.40;99.90;;;;;;5133498;27;20352;-74
2022/07/29 09:51:34;;;;;;;;;;;20.30;99.90;;;;;;5134414;28;19911;-72
2022/07/29 09:54:03;;;;;;;;;;;20.20;99.90;;;;;;5133345;27;19904;-72
2022/07/29 09:56:41;;;;;;;;;;;20.00;99.90;;;;;;5134060;28;20002;-72
2022/07/29 09:59:07;;;;;;;;;;;20.00;99.90;;;;;;5133648;28;19903;-72
2022/07/29 10:01:33;;;;;;;;;;;20.00;99.90;;;;;;5134083;28;19911;-73
2022/07/29 10:03:59;;;;;;;;;;;20.00;99.90;;;;;;5133740;28;19915;-72
2022/07/29 10:06:25;;;;;;;;;;;20.00;99.90;;;;;;5134070;28;19907;-72
2022/07/29 10:08:52;;;;;;;;;;;20.10;99.90;;;;;;5133368;28;19991;-74
2022/07/29 10:11:18;;;;;;;;;;;20.10;99.90;;;;;;5133916;28;19903;-73
2022/07/29 10:13:44;;;;;;;;;;;20.20;99.90;;;;;;5134184;28;19932;-73
2022/07/29 10:16:10;;;;;;;;;;;20.30;99.90;;;;;;5133620;28;20358;-73
2022/07/29 10:18:38;;;;;;;;;;;20.30;99.90;;;;;;5134059;28;19903;-73
2022/07/29 10:21:04;;;;;;;;;;;20.40;99.90;;;;;;5133511;28;19913;-73
2022/07/29 10:23:29;;;;;;;;;;;20.50;99.90;;;;;;5133904;28;20344;-73
2022/07/29 10:25:55;;;;;;;;;;;20.50;99.90;;;;;;5133528;28;19903;-73
2022/07/29 10:28:21;;;;;;;;;;;20.50;99.90;;;;;;5133619;28;19903;-73
2022/07/29 10:30:48;;;;;;;;;;;20.50;99.90;;;;;;5134044;28;19910;-73
2022/07/29 10:33:14;;;;;;;;;;;20.60;99.90;;;;;;5133722;28;19903;-73
2022/07/29 10:35:46;;;;;;;;;;;20.70;99.90;;;;;;5133746;28;19907;-73
2022/07/29 10:38:32;;;;;;;;;;;20.70;99.90;;;;;;5133395;28;19921;-73
2022/07/29 10:43:59;;;;;;;;;;;20.80;99.90;;;;;;5087511;28;20417;-73
2022/07/29 10:46:25;;;;;;;;;;;20.80;99.90;;;;;;5134855;28;19904;-72
2022/07/29 10:49:09;;;;;;;;;;;20.80;99.90;;;;;;5133615;28;20340;-73
2022/07/29 10:51:58;;;;;;;;;;;20.60;99.90;;;;;;5116833;28;19920;-72
2022/07/29 10:54:36;;;;;;;;;;;20.50;99.90;;;;;;5133693;28;20272;-72
2022/07/29 10:57:11;;;;;;;;;;;20.40;99.90;;;;;;5133140;28;19908;-73
2022/07/29 10:59:37;;;;;;;;;;;20.40;99.90;;;;;;5133426;28;19904;-72
2022/07/29 11:02:22;;;;;;;;;;;20.30;99.90;;;;;;5134900;28;19911;-72
2022/07/29 11:04:48;;;;;;;;;;;20.20;99.90;;;;;;5133373;28;20419;-72
2022/07/29 11:07:16;;;;;;;;;;;20.10;99.90;;;;;;5136177;27;19962;-75
2022/07/29 11:09:42;;;;;;;;;;;20.20;99.90;;;;;;5138390;27;19969;-74
2022/07/29 11:12:26;;;;;;;;;;;20.10;99.90;;;;;;5137483;27;19907;-72
2022/07/29 11:14:51;;;;;;;;;;;20.10;99.90;;;;;;5137061;27;19939;-72
2022/07/29 11:17:17;;;;;;;;;;;20.10;99.90;;;;;;5136532;27;19946;-72
2022/07/29 11:19:44;;;;;;;;;;;20.10;99.90;;;;;;5136920;27;19953;-71
2022/07/29 11:22:10;;;;;;;;;;;20.10;99.90;;;;;;5136482;27;19913;-72
2022/07/29 11:24:36;;;;;;;;;;;20.10;99.90;;;;;;5136879;27;19907;-72
2022/07/29 11:27:10;;;;;;;;;;;20.20;99.90;;;;;;5136190;27;20318;-73
2022/07/29 11:29:39;;;;;;;;;;;20.20;99.90;;;;;;5136699;27;19917;-72
2022/07/29 11:32:12;;;;;;;;;;;20.10;99.90;;;;;;5136339;27;19914;-73
2022/07/29 11:34:40;;;;;;;;;;;20.00;99.90;;;;;;5136739;27;19903;-73
2022/07/29 11:37:09;;;;;;;;;;;20.00;99.90;;;;;;5136104;27;19915;-73
2022/07/29 11:39:36;;;;;;;;;;;19.90;99.90;;;;;;5136897;27;19963;-73
2022/07/29 11:42:20;;;;;;;;;;;20.00;99.90;;;;;;5135551;27;19934;-73
2022/07/29 11:44:56;;;;;;;;;;;20.00;99.90;;;;;;5136208;27;20018;-73
2022/07/29 11:47:22;;;;;;;;;;;19.90;99.90;;;;;;5135824;27;20312;-73
2022/07/29 11:49:48;;;;;;;;;;;20.10;99.90;;;;;;5136243;27;19998;-73
2022/07/29 11:52:13;;;;;;;;;;;20.20;99.90;;;;;;5135527;27;20378;-73
2022/07/29 11:54:41;;;;;;;;;;;20.30;99.90;;;;;;5136228;27;19903;-73
2022/07/29 11:57:07;;;;;;;;;;;20.30;99.90;;;;;;5135843;27;19998;-73
2022/07/29 11:59:38;;;;;;;;;;;20.40;99.90;;;;;;5136211;27;20000;-73
2022/07/29 12:02:04;;;;;;;;;;;20.40;99.90;;;;;;5135766;27;19914;-73
2022/07/29 12:04:29;;;;;;;;;;;20.50;99.90;;;;;;5135733;27;19908;-73
2022/07/29 12:06:56;;;;;;;;;;;20.50;99.90;;;;;;5135966;27;19955;-73
2022/07/29 12:09:23;;;;;;;;;;;20.60;99.90;;;;;;5135859;27;19903;-73
2022/07/29 12:11:48;;;;;;;;;;;20.60;99.90;;;;;;5136140;27;19904;-73
2022/07/29 12:14:29;;;;;;;;;;;20.70;99.90;;;;;;5135362;27;19903;-73
2022/07/29 12:16:55;;;;;;;;;;;20.80;99.90;;;;;;5135525;27;19903;-73
2022/07/29 12:19:21;;;;;;;;;;;20.90;99.90;;;;;;5135131;27;19903;-71
2022/07/29 12:21:47;;;;;;;;;;;21.00;99.90;;;;;;5135900;27;19911;-73
2022/07/29 12:24:13;;;;;;;;;;;21.00;99.90;;;;;;5135351;27;19993;-73
2022/07/29 12:26:59;;;;;;;;;;;21.10;99.90;;;;;;5135712;27;19948;-72
2022/07/29 12:29:26;;;;;;;;;;;21.20;99.90;;;;;;5135130;27;19917;-74
2022/07/29 12:31:56;;;;;;;;;;;21.40;99.90;;;;;;5117391;27;20344;-73
2022/07/29 12:34:23;;;;;;;;;;;21.60;99.90;;;;;;5134756;27;19903;-73
2022/07/29 12:36:49;;;;;;;;;;;21.80;99.90;;;;;;5135592;27;20002;-73
2022/07/29 12:39:17;;;;;;;;;;;22.00;99.90;;;;;;5135324;27;20002;-73
2022/07/29 12:41:43;;;;;;;;;;;22.10;99.90;;;;;;5134946;27;20328;-73
2022/07/29 12:44:09;;;;;;;;;;;22.20;99.90;;;;;;5134880;27;19908;-73
2022/07/29 12:46:35;;;;;;;;;;;22.30;99.90;;;;;;5135305;27;19956;-73
2022/07/29 12:49:01;;;;;;;;;;;22.30;99.90;;;;;;5134864;27;19911;-73
2022/07/29 12:51:33;;;;;;;;;;;22.40;99.90;;;;;;5135274;27;19949;-73
2022/07/29 12:54:05;;;;;;;;;;;22.40;99.90;;;;;;5134702;27;19907;-74
2022/07/29 12:56:31;;;;;;;;;;;22.50;99.90;;;;;;5135088;27;19903;-74
2022/07/29 12:58:56;;;;;;;;;;;22.50;99.90;;;;;;5135060;27;19986;-73
2022/07/29 13:01:22;;;;;;;;;;;22.60;99.90;;;;;;5134073;27;20394;-73
2022/07/29 13:03:48;;;;;;;;;;;22.50;99.90;;;;;;5134899;27;19915;-73
2022/07/29 13:06:32;;;;;;;;;;;22.50;99.90;;;;;;5134540;27;19909;-73
2022/07/29 13:08:59;;;;;;;;;;;22.50;99.90;;;;;;5134742;27;19956;-73
2022/07/29 13:11:29;;;;;;;;;;;22.60;99.90;;;;;;5134595;27;20344;-73
2022/07/29 13:13:54;;;;;;;;;;;22.60;99.90;;;;;;5134783;27;19903;-73
2022/07/29 13:16:20;;;;;;;;;;;22.60;99.90;;;;;;5134363;27;19914;-73
2022/07/29 13:18:45;;;;;;;;;;;22.70;99.90;;;;;;5134822;27;19929;-73
2022/07/29 13:21:12;;;;;;;;;;;22.70;99.90;;;;;;5133728;27;19907;-73
2022/07/29 13:23:37;;;;;;;;;;;22.80;99.90;;;;;;5134016;27;19915;-73
2022/07/29 13:26:07;;;;;;;;;;;23.00;99.90;;;;;;5133601;27;19907;-74
2022/07/29 13:28:32;;;;;;;;;;;23.10;99.90;;;;;;5133932;27;19994;-72
2022/07/29 13:30:58;;;;;;;;;;;23.20;99.90;;;;;;5134057;27;19935;-73
2022/07/29 13:33:23;;;;;;;;;;;23.20;99.90;;;;;;5133389;27;19954;-73
2022/07/29 13:35:49;;;;;;;;;;;23.20;99.90;;;;;;5133589;27;19904;-74
2022/07/29 13:38:15;;;;;;;;;;;23.20;99.90;;;;;;5133644;27;19903;-73
2022/07/29 13:40:40;;;;;;;;;;;23.10;99.90;;;;;;5134261;27;19915;-74
2022/07/29 13:43:09;;;;;;;;;;;23.20;99.90;;;;;;5133342;27;19907;-74
2022/07/29 13:45:34;;;;;;;;;;;23.20;99.90;;;;;;5134042;27;19903;-74
2022/07/29 13:48:00;;;;;;;;;;;23.20;99.90;;;;;;5133984;27;19904;-74
2022/07/29 13:50:26;;;;;;;;;;;23.30;99.90;;;;;;5133427;27;19907;-74
2022/07/29 13:52:51;;;;;;;;;;;23.30;99.90;;;;;;5133837;28;19903;-73
2022/07/29 13:55:17;;;;;;;;;;;23.40;99.90;;;;;;5133366;28;20396;-74
2022/07/29 13:57:43;;;;;;;;;;;23.40;99.90;;;;;;5133595;28;19951;-73
2022/07/29 14:00:09;;;;;;;;;;;23.40;99.90;;;;;;5132802;28;19904;-74
2022/07/29 14:02:35;;;;;;;;;;;23.40;99.90;;;;;;5134201;28;19960;-73
2022/07/29 14:05:00;;;;;;;;;;;23.30;99.90;;;;;;5134097;28;19904;-75
2022/07/29 14:07:26;;;;;;;;;;;23.20;99.90;;;;;;5132915;28;20402;-75
2022/07/29 14:09:51;;;;;;;;;;;23.00;99.90;;;;;;5133532;28;19903;-75
2022/07/29 14:12:17;;;;;;;;;;;23.00;99.90;;;;;;5133140;28;20417;-74
2022/07/29 14:14:43;;;;;;;;;;;23.00;99.90;;;;;;5133515;28;19915;-73
2022/07/29 14:17:08;;;;;;;;;;;23.10;99.90;;;;;;5132871;28;19958;-75